Terminal Aerodrome Forecast
Issued by NWS Twin Cities, MN

Home | Current Version | Previous Version | Text Only | Print | Product List | Glossary Off
Versions: 1 2 3 4 5 6 7 8 9 10 11 12 13 14 15 16 17 18

000
FTUS43 KMPX 120900 AAA
TAFEAU
TAF AMD
KEAU 120946Z 1210/1306 VRB02KT P6SM OVC200
     FM121100 23003KT 5SM BR OVC200
     FM121300 29004KT P6SM BKN035 BKN120
     FM121800 27007KT P6SM -SHRA BKN040 OVC100
     FM130000 27006KT P6SM SCT050 BKN120=

USA.gov is the U.S. government's official web portal to all federal, state and local government web resources and services.